Sunday, January 21, 2018, 8:36 PM GMT
Back to Local

CYBN, Borden, Ont.

Location: , , Canada Lat: 44.25
Local Time: 8:36 PM GMT (20:36 GMT) Lon: -79.917
Time Zone: GMT Elev: 731 ft

Show me the last for .
Show Decoded

2018-01-21 20:00 METAR CYBN 212000Z AUTO 14005KT 9SM CLR 06/01 A3002 RMK SLP173 =
2018-01-21 19:00 METAR CYBN 211900Z AUTO 15004KT 090V160 9SM CLR 07/01 A3001 RMK SLP172 =
2018-01-21 18:00 METAR CYBN 211800Z AUTO 15003KT 090V170 9SM CLR 05/01 A3003 RMK SLP176 =
2018-01-21 17:00 METAR CYBN 211700Z AUTO 15005KT 9SM CLR 06/01 A3004 RMK SLP182 =
2018-01-21 16:00 METAR CYBN 211600Z AUTO 16004KT 090V180 9SM CLR 05/00 A3007 RMK SLP192 =
2018-01-21 15:00 METAR CYBN 211500Z AUTO 00000KT 6SM CLR 02/M00 A3008 RMK SLP194 =
2018-01-21 14:00 METAR CYBN 211400Z AUTO 00000KT 3SM CLR 00/M01 A3007 RMK SLP194 =
2018-01-21 13:00 METAR CYBN 211300Z AUTO 00000KT 3SM CLR M01/M01 A3007 RMK SLP193 =
2018-01-21 12:00 METAR CYBN 211200Z AUTO 00000KT 4SM FEW093 M01/M01 A3006 RMK SLP191 =
2018-01-21 11:00 METAR CYBN 211100Z AUTO 00000KT 4SM FEW098 M01/M01 A3005 RMK SLP187 =
2018-01-21 10:00 METAR CYBN 211000Z AUTO 19002KT 5SM CLR M00/M01 A3005 RMK SLP185 =
2018-01-21 09:00 METAR CYBN 210900Z AUTO 18004KT 090V210 4SM CLR M01/M01 A3003 RMK SLP179 =
2018-01-21 08:00 METAR CYBN 210800Z AUTO 00000KT 5SM FEW097 M01/M02 A3002 RMK SLP175 =
2018-01-21 07:00 METAR CYBN 210700Z AUTO 00000KT 6SM FEW099 M01/M02 A3001 RMK SLP172 =
2018-01-21 06:00 METAR CYBN 210600Z AUTO 00000KT 8SM BKN099 00/M01 A3000 RMK SLP165 =
2018-01-21 05:00 METAR CYBN 210500Z AUTO 23004KT 8SM OVC034 00/M01 A3001 RMK SLP172 =
2018-01-21 04:00 METAR CYBN 210400Z AUTO 24004KT 8SM FEW038 M01/M02 A3000 RMK SLP167 =
2018-01-21 03:00 METAR CYBN 210300Z AUTO 00000KT 9SM CLR 00/M01 A2998 RMK SLP161 =
2018-01-21 02:00 METAR CYBN 210200Z AUTO 00000KT 9SM CLR 01/M01 A2997 RMK SLP159 =
2018-01-21 01:00 METAR CYBN 210100Z AUTO 00000KT 9SM SCT022 01/M01 A2998 RMK SLP160 =
2018-01-21 00:00 METAR CYBN 210000Z AUTO 00000KT 9SM FEW025 00/M01 A2995 RMK SLP151 =
2018-01-20 23:00 METAR CYBN 202300Z AUTO 00000KT 9SM CLR 04/M00 A2993 RMK SLP143 =
2018-01-20 22:00 METAR CYBN 202200Z AUTO 00000KT 9SM FEW029 FEW071 04/M00 A2990 RMK SLP134 =
2018-01-20 21:00 METAR CYBN 202100Z AUTO 26003KT 9SM FEW029 05/00 A2988 RMK SLP126 =

Support USWX by starting your Amazon purchase here.